Green Meadow, Maryland
Current Conditions -  °F | °C
As of 3:35 PM on Saturday 20 Dec 2014 (Local Time) from KCGS Reporting Station
Overcast Overcast  
Wind Chill: 37°   Ceiling: 12000
Heat Index: 37°   Visibility: 10mi
Dew Point: 23°   Wind: 0mph
Humidity: 56%   Direction: NA
Pressure: 30.26"   Gusts: NA
Location:  38.9677°N, 76.9584°W
Report Text: KCGS 202035Z AUTO 00000KT 10SM OVC120 03/M05 A3026 RMK AO1
Loading
Personal Weather Stations






























Interactive Weather Map New forecast layout! Learn more

10-Day Weather Forecast

Advertisements
Track Severe Weather on mobile